Time;durP1;ratioP1;P1;durP2;ratioP2;P2;SDS_P1;SDS_P2;PMS_P1;PMS_P2;Temp;Humidity;BMP_temperature;BMP_pressure;BME280_temperature;BME280_humidity;BME280_pressure;Samples;Min_cycle;Max_cycle;Signal;HPM_P1;HPM_P2
2023/12/30 00:02:10;;;;;;;76.32;37.50;;;;;;;1.70;100.00;99783.66;5033874;28;20021;-72
2023/12/30 00:04:35;;;;;;;83.25;41.35;;;;;;;1.75;100.00;99779.00;5033031;28;20040;-72
2023/12/30 00:07:01;;;;;;;78.68;42.65;;;;;;;1.74;100.00;99782.84;5046436;28;20029;-72
2023/12/30 00:09:26;;;;;;;100.78;52.60;;;;;;;1.77;100.00;99782.31;5052436;28;20025;-72
2023/12/30 00:11:54;;;;;;;96.78;50.53;;;;;;;1.68;100.00;99786.66;5052551;28;20020;-73
2023/12/30 00:14:19;;;;;;;81.53;45.28;;;;;;;1.56;100.00;99786.06;5049441;28;20021;-72
2023/12/30 00:16:45;;;;;;;82.22;44.60;;;;;;;1.57;100.00;99783.03;5051105;28;20080;-72
2023/12/30 00:19:11;;;;;;;81.63;45.05;;;;;;;1.51;100.00;99779.44;5050903;28;20441;-72
2023/12/30 00:21:37;;;;;;;82.60;44.17;;;;;;;1.52;100.00;99777.50;5052191;28;20036;-69
2023/12/30 00:24:03;;;;;;;88.53;47.97;;;;;;;1.44;100.00;99784.34;5052322;28;20422;-69
2023/12/30 00:26:29;;;;;;;88.43;46.60;;;;;;;1.53;100.00;99776.41;5045352;28;20525;-69
2023/12/30 00:28:54;;;;;;;82.28;43.22;;;;;;;1.60;100.00;99792.72;5031303;28;20065;-69
2023/12/30 00:31:25;;;;;;;84.88;44.05;;;;;;;1.40;100.00;99777.69;5032304;28;20021;-70
2023/12/30 00:34:00;;;;;;;;;;;;;;;1.59;100.00;99780.84;5031365;28;20068;-70
2023/12/30 00:36:26;;;;;;;86.70;40.17;;;;;;;1.76;100.00;99790.88;5033446;28;19920;-69
2023/12/30 00:38:54;;;;;;;87.50;44.92;;;;;;;1.81;100.00;99793.66;5033046;28;20108;-69
2023/12/30 00:41:20;;;;;;;85.93;45.88;;;;;;;1.84;100.00;99781.25;5030669;28;20018;-69
2023/12/30 00:43:46;;;;;;;81.65;42.95;;;;;;;2.02;100.00;99780.75;5031997;28;20405;-69
2023/12/30 00:46:11;;;;;;;83.88;43.60;;;;;;;2.19;100.00;99788.81;5031980;28;20025;-69
2023/12/30 00:48:37;;;;;;;84.10;42.90;;;;;;;2.26;99.23;99776.72;5031847;28;20608;-70
2023/12/30 00:51:03;;;;;;;77.13;40.28;;;;;;;2.31;99.42;99787.75;5031971;28;20462;-69
2023/12/30 00:53:29;;;;;;;82.72;41.83;;;;;;;2.28;98.83;99786.34;5031920;28;20501;-70
2023/12/30 00:55:55;;;;;;;76.15;42.15;;;;;;;1.97;98.81;99786.28;5039172;28;20121;-70
2023/12/30 00:58:21;;;;;;;73.53;41.05;;;;;;;2.12;98.69;99788.25;5051855;28;20060;-70
2023/12/30 01:00:46;;;;;;;72.90;39.40;;;;;;;1.92;98.49;99792.59;5050212;28;20052;-70
2023/12/30 01:03:11;;;;;;;75.32;39.72;;;;;;;1.38;100.00;99791.75;5050258;28;20515;-70
2023/12/30 01:05:37;;;;;;;68.25;38.65;;;;;;;1.47;100.00;99789.34;5047004;28;20520;-69
2023/12/30 01:08:03;;;;;;;67.15;38.17;;;;;;;1.43;100.00;99779.09;5029508;28;20025;-69
2023/12/30 01:10:28;;;;;;;70.50;37.72;;;;;;;1.41;100.00;99782.13;5031637;28;20068;-70
2023/12/30 01:12:54;;;;;;;69.38;36.17;;;;;;;1.51;100.00;99779.44;5031583;28;20471;-69
2023/12/30 01:15:19;;;;;;;66.65;36.70;;;;;;;1.60;100.00;99785.25;5033580;28;20074;-69
2023/12/30 01:17:45;;;;;;;73.32;38.33;;;;;;;1.72;100.00;99779.53;5051682;28;20028;-69
2023/12/30 01:20:10;;;;;;;67.45;38.90;;;;;;;1.30;100.00;99788.66;5051154;28;20123;-69
2023/12/30 01:22:36;;;;;;;76.65;38.80;;;;;;;1.24;100.00;99782.28;5049803;28;20066;-69
2023/12/30 01:25:05;;;;;;;67.18;37.97;;;;;;;0.89;100.00;99780.91;5051190;28;20021;-69
2023/12/30 01:27:31;;;;;;;61.95;32.30;;;;;;;0.84;100.00;99781.69;5051374;28;20024;-70
2023/12/30 01:29:57;;;;;;;65.07;36.83;;;;;;;0.89;100.00;99779.00;5051049;28;20132;-69
2023/12/30 01:32:22;;;;;;;65.35;37.53;;;;;;;1.09;100.00;99774.75;5051207;28;20466;-69
2023/12/30 01:34:47;;;;;;;75.10;38.92;;;;;;;1.09;100.00;99766.50;5051260;28;20032;-69
2023/12/30 01:37:13;;;;;;;88.60;45.20;;;;;;;1.25;100.00;99765.50;5033674;28;20036;-69
2023/12/30 01:39:38;;;;;;;70.72;41.58;;;;;;;1.38;100.00;99768.88;5031061;28;20077;-70
2023/12/30 01:42:04;;;;;;;71.47;40.03;;;;;;;1.32;100.00;99764.41;5029917;28;20025;-69
2023/12/30 01:44:29;;;;;;;72.72;39.28;;;;;;;1.44;100.00;99773.31;5029787;28;20021;-69
2023/12/30 01:46:55;;;;;;;77.03;40.47;;;;;;;1.36;100.00;99766.38;5031041;28;20506;-70
2023/12/30 01:49:21;;;;;;;67.80;39.80;;;;;;;1.50;100.00;99766.75;5031043;28;20402;-70
2023/12/30 01:51:48;;;;;;;65.07;36.55;;;;;;;1.09;100.00;99761.78;5031272;28;20021;-69
2023/12/30 01:54:17;;;;;;;66.28;36.13;;;;;;;1.28;100.00;99753.13;5047850;28;20456;-69
2023/12/30 01:56:43;;;;;;;75.72;38.20;;;;;;;1.37;100.00;99762.50;5049274;28;20116;-69
2023/12/30 01:59:11;;;;;;;64.40;34.17;;;;;;;0.82;100.00;99757.19;5051076;28;20413;-69
2023/12/30 02:01:36;;;;;;;64.18;35.20;;;;;;;1.18;100.00;99753.84;5051027;28;20031;-70
2023/12/30 02:04:02;;;;;;;74.30;39.13;;;;;;;1.18;100.00;99759.38;5051205;28;20021;-69
2023/12/30 02:06:27;;;;;;;95.15;50.42;;;;;;;1.06;100.00;99753.22;5041163;28;20034;-69
2023/12/30 02:08:53;;;;;;;74.47;40.17;;;;;;;0.83;100.00;99753.34;5029735;28;20514;-69
2023/12/30 02:11:19;;;;;;;61.50;36.28;;;;;;;0.89;100.00;99759.72;5030815;28;20067;-70
2023/12/30 02:13:45;;;;;;;68.07;36.42;;;;;;;0.76;100.00;99758.22;5031219;28;20457;-69
2023/12/30 02:16:11;;;;;;;64.07;36.15;;;;;;;0.91;100.00;99759.47;5034221;28;20021;-69
2023/12/30 02:18:39;;;;;;;82.97;39.22;;;;;;;1.09;100.00;99755.47;5051373;28;20053;-69
2023/12/30 02:21:05;;;;;;;69.40;37.20;;;;;;;1.23;100.00;99751.16;5053335;28;20554;-69
2023/12/30 02:23:30;;;;;;;64.78;37.45;;;;;;;1.34;100.00;99753.97;5054388;28;20045;-70
2023/12/30 02:25:56;;;;;;;65.28;36.72;;;;;;;1.29;100.00;99753.94;5054539;28;20079;-69
2023/12/30 02:28:21;;;;;;;64.75;36.65;;;;;;;0.94;100.00;99759.75;5053143;28;20070;-69
2023/12/30 02:30:47;;;;;;;72.95;38.78;;;;;;;0.68;100.00;99767.81;5053123;28;20490;-69
2023/12/30 02:33:12;;;;;;;69.72;38.13;;;;;;;0.38;100.00;99769.19;5054403;28;20063;-69
2023/12/30 02:35:42;;;;;;;76.38;37.53;;;;;;;0.60;100.00;99754.50;5050719;28;20052;-69
2023/12/30 02:38:07;;;;;;;71.03;35.92;;;;;;;0.63;100.00;99756.75;5052644;28;20021;-69
2023/12/30 02:40:33;;;;;;;66.32;36.42;;;;;;;0.77;100.00;99756.31;5033058;28;20029;-69
2023/12/30 02:42:58;;;;;;;60.90;33.50;;;;;;;0.72;100.00;99762.63;5034408;28;20022;-72
2023/12/30 02:45:24;;;;;;;63.33;34.65;;;;;;;0.64;100.00;99760.31;5034179;28;20258;-72
2023/12/30 02:47:49;;;;;;;66.28;33.95;;;;;;;0.52;100.00;99772.34;5032967;28;20025;-72
2023/12/30 02:50:15;;;;;;;63.67;34.13;;;;;;;0.48;100.00;99771.19;5034025;28;20081;-72
2023/12/30 02:52:40;;;;;;;67.00;34.58;;;;;;;0.46;100.00;99769.78;5032868;28;20033;-72
2023/12/30 02:55:06;;;;;;;75.35;35.58;;;;;;;0.53;100.00;99781.44;5034133;28;20026;-72
2023/12/30 02:57:31;;;;;;;63.92;35.65;;;;;;;0.65;100.00;99773.84;5032758;28;20093;-72
2023/12/30 02:59:57;;;;;;;63.92;35.40;;;;;;;0.61;100.00;99772.72;5032871;28;20026;-72
2023/12/30 03:02:23;;;;;;;61.50;33.22;;;;;;;0.44;100.00;99778.34;5033892;28;20033;-72
2023/12/30 03:04:49;;;;;;;62.60;31.70;;;;;;;0.85;100.00;99777.88;5032783;28;20402;-72
2023/12/30 03:07:15;;;;;;;60.10;33.72;;;;;;;0.90;100.00;99777.06;5041245;28;20056;-72
2023/12/30 03:09:40;;;;;;;55.42;31.70;;;;;;;0.94;100.00;99775.47;5032310;28;20033;-72
2023/12/30 03:12:06;;;;;;;56.38;28.90;;;;;;;0.95;100.00;99775.19;5033818;28;20018;-72
2023/12/30 03:14:31;;;;;;;57.30;30.25;;;;;;;1.12;100.00;99769.53;5034088;28;20033;-72
2023/12/30 03:16:57;;;;;;;53.38;29.50;;;;;;;1.23;100.00;99772.34;5033403;28;20021;-72
2023/12/30 03:19:23;;;;;;;87.50;44.20;;;;;;;1.38;100.00;99774.38;5033545;28;20480;-72
2023/12/30 03:21:49;;;;;;;92.13;44.70;;;;;;;1.42;100.00;99769.19;5033194;28;20028;-72
2023/12/30 03:24:14;;;;;;;85.50;41.38;;;;;;;1.36;100.00;99771.06;5033559;28;20041;-72
2023/12/30 03:26:40;;;;;;;65.63;33.85;;;;;;;1.26;100.00;99772.66;5044172;28;20107;-72
2023/12/30 03:29:05;;;;;;;59.97;31.30;;;;;;;1.18;100.00;99773.16;5033479;28;20085;-73
2023/12/30 03:31:31;;;;;;;48.33;27.25;;;;;;;1.29;100.00;99773.22;5031186;28;20026;-73
2023/12/30 03:33:56;;;;;;;46.45;26.13;;;;;;;1.28;100.00;99766.91;5033105;28;20022;-72
2023/12/30 03:36:22;;;;;;;42.03;25.45;;;;;;;1.35;100.00;99774.94;5041712;28;20025;-72
2023/12/30 03:38:48;;;;;;;45.70;24.90;;;;;;;1.37;100.00;99776.31;5053061;28;20020;-73
2023/12/30 03:41:14;;;;;;;64.25;32.97;;;;;;;1.26;100.00;99780.09;5052048;28;20017;-72
2023/12/30 03:43:40;;;;;;;103.55;41.63;;;;;;;0.91;100.00;99795.28;5052729;28;20387;-71
2023/12/30 03:46:05;;;;;;;162.05;59.67;;;;;;;1.13;100.00;99781.38;5047485;28;20125;-72
2023/12/30 03:48:32;;;;;;;106.97;46.75;;;;;;;1.16;100.00;99789.13;5033035;28;20025;-72
2023/12/30 03:50:57;;;;;;;89.35;37.92;;;;;;;1.20;100.00;99789.44;5031884;28;20020;-72
2023/12/30 03:53:23;;;;;;;79.63;38.85;;;;;;;1.37;100.00;99790.09;5031545;28;20021;-72
2023/12/30 03:55:48;;;;;;;67.15;34.13;;;;;;;1.53;100.00;99788.25;5036123;28;20087;-72
2023/12/30 03:58:14;;;;;;;69.32;33.75;;;;;;;1.52;99.86;99796.81;5052627;28;20036;-72
2023/12/30 04:00:39;;;;;;;77.57;39.92;;;;;;;1.53;99.74;99793.78;5051556;28;20060;-73
2023/12/30 04:03:04;;;;;;;76.22;36.33;;;;;;;1.44;99.67;99798.13;5052632;28;20028;-73
2023/12/30 04:05:30;;;;;;;72.13;35.78;;;;;;;1.28;100.00;99793.63;5050034;28;20021;-72
2023/12/30 04:07:55;;;;;;;106.75;44.83;;;;;;;0.84;100.00;99793.56;5031251;28;20030;-72
2023/12/30 04:10:21;;;;;;;110.95;48.55;;;;;;;1.05;100.00;99803.91;5031239;28;20108;-72
2023/12/30 04:12:46;;;;;;;108.72;46.42;;;;;;;0.95;100.00;99791.72;5032578;28;20025;-72
2023/12/30 04:15:12;;;;;;;81.72;39.78;;;;;;;1.16;100.00;99796.56;5032039;28;20053;-72
2023/12/30 04:17:38;;;;;;;94.10;40.33;;;;;;;1.22;100.00;99787.22;5031420;28;20022;-72
2023/12/30 04:20:05;;;;;;;107.70;42.72;;;;;;;0.84;100.00;99787.22;5032474;28;20017;-72
2023/12/30 04:22:31;;;;;;;117.28;47.15;;;;;;;0.92;100.00;99775.72;5031023;28;20121;-72
2023/12/30 04:24:57;;;;;;;101.43;47.05;;;;;;;0.93;100.00;99780.13;5032768;28;20053;-72
2023/12/30 04:27:22;;;;;;;59.95;29.10;;;;;;;0.81;100.00;99784.97;5032378;28;20036;-72
2023/12/30 04:29:48;;;;;;;39.50;22.73;;;;;;;0.70;100.00;99782.13;5032389;28;20025;-72
2023/12/30 04:32:13;;;;;;;45.50;22.70;;;;;;;0.74;100.00;99787.97;5032166;28;20030;-72
2023/12/30 04:34:39;;;;;;;41.42;23.65;;;;;;;0.91;100.00;99779.56;5032155;28;20021;-72
2023/12/30 04:37:04;;;;;;;44.22;22.52;;;;;;;0.66;100.00;99785.66;5045891;28;20060;-72
2023/12/30 04:39:30;;;;;;;49.83;25.35;;;;;;;0.74;100.00;99793.47;5050531;28;20021;-72
2023/12/30 04:41:55;;;;;;;71.57;37.30;;;;;;;0.65;100.00;99793.13;5049995;28;20013;-72
2023/12/30 04:44:21;;;;;;;55.80;29.23;;;;;;;0.56;100.00;99786.41;5046070;28;20025;-72
2023/12/30 04:46:47;;;;;;;48.10;26.20;;;;;;;0.67;100.00;99782.66;5031811;28;20053;-72
2023/12/30 04:49:13;;;;;;;45.50;23.35;;;;;;;0.59;100.00;99785.06;5032389;28;20445;-72
2023/12/30 04:51:39;;;;;;;39.75;20.60;;;;;;;0.54;100.00;99778.44;5030610;28;20021;-72
2023/12/30 04:54:04;;;;;;;49.33;26.23;;;;;;;0.52;100.00;99779.78;5031763;28;20124;-72
2023/12/30 04:56:30;;;;;;;50.47;26.15;;;;;;;0.61;100.00;99775.47;5030680;28;20022;-72
2023/12/30 04:58:56;;;;;;;61.83;29.45;;;;;;;0.66;100.00;99788.44;5031857;28;20025;-72
2023/12/30 05:01:21;;;;;;;52.95;25.90;;;;;;;0.89;100.00;99779.00;5031888;28;20025;-72
2023/12/30 05:03:47;;;;;;;70.88;38.22;;;;;;;1.07;100.00;99775.00;5038422;28;20083;-72
2023/12/30 05:06:21;;;;;;;74.90;41.28;;;;;;;1.18;100.00;99788.88;5043463;28;20483;-72
2023/12/30 05:08:50;;;;;;;69.35;40.13;;;;;;;1.18;100.00;99775.91;5030370;28;20048;-72
2023/12/30 05:11:16;;;;;;;68.40;38.50;;;;;;;1.40;100.00;99784.06;5031472;28;20025;-72
2023/12/30 05:13:45;;;;;;;45.90;28.50;;;;;;;1.20;100.00;99784.72;5031905;28;20072;-72
2023/12/30 05:16:11;;;;;;;78.90;41.63;;;;;;;0.74;100.00;99800.91;5036236;28;20478;-72
2023/12/30 05:18:37;;;;;;;120.68;62.38;;;;;;;0.74;100.00;99793.47;5040078;28;20036;-72
2023/12/30 05:21:02;;;;;;;102.68;55.15;;;;;;;0.70;100.00;99797.84;5040642;28;20351;-72
2023/12/30 05:23:28;;;;;;;99.85;52.33;;;;;;;0.57;100.00;99799.09;5041463;28;20457;-72
2023/12/30 05:25:53;;;;;;;87.03;46.83;;;;;;;0.61;100.00;99803.00;5046611;28;20033;-72
2023/12/30 05:28:19;;;;;;;77.43;40.80;;;;;;;0.60;100.00;99804.06;5051099;28;20025;-71
2023/12/30 05:30:44;;;;;;;76.38;41.53;;;;;;;0.60;100.00;99787.53;5051166;28;20029;-72
2023/12/30 05:33:10;;;;;;;112.10;53.63;;;;;;;0.60;100.00;99795.00;5049823;28;20410;-72
2023/12/30 05:35:36;;;;;;;100.38;52.00;;;;;;;0.66;100.00;99797.53;5049636;28;20016;-72
2023/12/30 05:38:03;;;;;;;111.93;65.35;;;;;;;0.67;100.00;99804.69;5031229;28;20022;-72
2023/12/30 05:40:29;;;;;;;118.43;60.72;;;;;;;0.77;100.00;99814.16;5031463;28;20025;-70
2023/12/30 05:42:55;;;;;;;121.35;57.38;;;;;;;0.85;100.00;99813.69;5031618;28;20022;-70
2023/12/30 05:45:20;;;;;;;141.43;69.38;;;;;;;1.01;100.00;99811.88;5031283;28;20079;-70
2023/12/30 05:47:45;;;;;;;136.75;71.30;;;;;;;1.22;100.00;99803.75;5031431;28;20463;-71
2023/12/30 05:50:14;;;;;;;141.82;64.70;;;;;;;1.33;100.00;99811.00;5031406;28;20021;-71
2023/12/30 05:52:40;;;;;;;136.95;63.92;;;;;;;1.32;100.00;99817.63;5031289;28;20051;-72
2023/12/30 05:55:05;;;;;;;116.57;59.63;;;;;;;1.43;100.00;99818.50;5034545;28;20033;-73
2023/12/30 05:57:32;;;;;;;147.68;81.97;;;;;;;1.12;100.00;99815.56;5033685;28;20108;-73
2023/12/30 05:59:57;;;;;;;90.60;48.42;;;;;;;0.74;100.00;99834.78;5034995;28;20495;-73
2023/12/30 06:02:23;;;;;;;96.30;52.63;;;;;;;0.58;100.00;99832.97;5035196;28;20029;-73
2023/12/30 06:04:48;;;;;;;79.72;41.80;;;;;;;0.54;100.00;99838.16;5036038;28;20037;-72
2023/12/30 06:07:14;;;;;;;71.43;41.83;;;;;;;0.77;100.00;99830.69;5049910;28;20539;-72
2023/12/30 06:09:41;;;;;;;76.50;44.65;;;;;;;0.87;100.00;99827.19;5053402;28;20444;-72
2023/12/30 06:12:07;;;;;;;106.93;51.92;;;;;;;1.02;100.00;99835.56;5055364;28;20020;-68
2023/12/30 06:14:33;;;;;;;105.25;53.30;;;;;;;0.83;100.00;99835.13;5047928;28;20058;-69
2023/12/30 06:16:59;;;;;;;86.00;49.00;;;;;;;1.07;100.00;99843.91;5034722;28;20493;-68
2023/12/30 06:19:24;;;;;;;90.95;48.60;;;;;;;1.05;100.00;99832.31;5034739;28;20067;-69
2023/12/30 06:21:50;;;;;;;78.40;43.70;;;;;;;1.14;100.00;99840.91;5035020;28;20091;-68
2023/12/30 06:24:15;;;;;;;70.43;43.65;;;;;;;1.33;100.00;99843.28;5034865;28;20056;-69
2023/12/30 06:26:41;;;;;;;84.63;42.88;;;;;;;1.45;100.00;99845.81;5033627;28;20030;-69
2023/12/30 06:29:07;;;;;;;74.20;41.42;;;;;;;1.65;100.00;99840.47;5033380;28;20025;-70
2023/12/30 06:31:33;;;;;;;83.05;44.85;;;;;;;1.82;100.00;99839.44;5033302;28;20068;-68
2023/12/30 06:33:59;;;;;;;90.63;47.03;;;;;;;2.04;100.00;99847.53;5035042;28;20041;-69
2023/12/30 06:36:24;;;;;;;89.93;45.35;;;;;;;2.14;100.00;99835.75;5036240;28;20108;-69
2023/12/30 06:38:50;;;;;;;85.95;48.03;;;;;;;2.15;100.00;99844.81;5033176;28;20442;-69
2023/12/30 06:41:19;;;;;;;97.53;51.20;;;;;;;2.36;100.00;99846.56;5036136;28;20410;-69
2023/12/30 06:43:45;;;;;;;111.13;56.00;;;;;;;2.48;100.00;99853.78;5033577;28;20033;-69
2023/12/30 06:46:11;;;;;;;131.60;66.28;;;;;;;2.63;99.82;99845.53;5036890;28;20517;-69
2023/12/30 06:48:39;;;;;;;169.98;86.35;;;;;;;2.49;99.97;99844.41;5032907;28;20041;-69
2023/12/30 06:51:10;;;;;;;193.50;87.55;;;;;;;2.66;99.68;99852.47;5048125;28;20599;-69
2023/12/30 06:53:35;;;;;;;187.88;92.45;;;;;;;2.63;99.38;99859.34;5052125;28;20082;-70
2023/12/30 06:56:05;;;;;;;178.82;91.70;;;;;;;2.86;98.98;99850.84;5040649;28;20531;-69
2023/12/30 06:58:30;;;;;;;152.82;75.18;;;;;;;2.48;100.00;99856.56;5031947;28;20144;-70
2023/12/30 07:00:56;;;;;;;169.75;78.53;;;;;;;2.32;100.00;99853.75;5029945;28;20542;-70
2023/12/30 07:03:22;;;;;;;155.50;77.95;;;;;;;2.50;100.00;99854.34;5030184;28;20029;-70
2023/12/30 07:05:47;;;;;;;152.68;78.68;;;;;;;2.48;100.00;99857.41;5033303;28;20027;-70
2023/12/30 07:08:13;;;;;;;133.00;71.95;;;;;;;2.50;100.00;99862.63;5051529;28;20056;-69
2023/12/30 07:10:39;;;;;;;112.35;51.60;;;;;;;2.18;100.00;99861.69;5048439;28;20020;-70
2023/12/30 07:13:06;;;;;;;143.02;65.60;;;;;;;2.31;100.00;99863.13;5049988;28;20112;-70
2023/12/30 07:15:31;;;;;;;142.50;61.80;;;;;;;2.43;100.00;99856.53;5044430;28;20087;-71
2023/12/30 07:17:57;;;;;;;147.02;65.93;;;;;;;2.48;100.00;99853.78;5031810;28;20620;-69
2023/12/30 07:20:23;;;;;;;138.77;63.72;;;;;;;2.70;100.00;99869.31;5050201;28;20037;-71
2023/12/30 07:22:48;;;;;;;52.92;29.23;;;;;;;2.80;100.00;99863.81;5035236;28;20049;-72
2023/12/30 07:25:14;;;;;;;41.33;23.48;;;;;;;3.07;100.00;99851.69;5030800;28;20037;-69
2023/12/30 07:27:39;;;;;;;32.25;19.35;;;;;;;3.25;100.00;99864.13;5029606;28;20048;-71
2023/12/30 07:30:06;;;;;;;36.15;19.73;;;;;;;3.43;100.00;99854.44;5043696;28;20091;-71
2023/12/30 07:32:31;;;;;;;28.33;17.27;;;;;;;3.55;100.00;99861.63;5038907;28;20036;-71
2023/12/30 07:34:57;;;;;;;30.17;17.67;;;;;;;3.68;100.00;99872.13;5032272;28;20462;-70
2023/12/30 07:37:22;;;;;;;40.92;23.77;;;;;;;3.67;100.00;99870.47;5029307;28;20041;-74
2023/12/30 07:39:52;;;;;;;42.92;24.02;;;;;;;3.43;100.00;99872.97;5029536;28;20033;-72
2023/12/30 07:42:17;;;;;;;39.47;21.40;;;;;;;3.38;100.00;99862.75;5029326;28;20044;-73
2023/12/30 07:44:43;;;;;;;40.45;21.40;;;;;;;3.65;100.00;99864.38;5030713;28;20033;-73
2023/12/30 07:47:08;;;;;;;45.13;24.33;;;;;;;3.70;100.00;99872.66;5029478;28;20083;-71
2023/12/30 07:49:34;;;;;;;46.22;28.27;;;;;;;4.01;100.00;99869.84;5028905;28;20025;-72
2023/12/30 07:52:00;;;;;;;56.75;31.08;;;;;;;4.26;100.00;99881.09;5029070;28;20438;-74
2023/12/30 07:54:27;;;;;;;51.70;30.45;;;;;;;4.20;100.00;99877.53;5030176;28;20044;-70
2023/12/30 07:56:52;;;;;;;54.58;30.83;;;;;;;4.39;100.00;99883.25;5030185;28;20111;-70
2023/12/30 07:59:18;;;;;;;36.72;24.35;;;;;;;4.59;100.00;99887.91;5046513;28;20060;-70
2023/12/30 08:01:44;;;;;;;69.68;34.70;;;;;;;4.78;100.00;99892.78;5048329;28;20040;-70
2023/12/30 08:04:10;;;;;;;51.53;29.35;;;;;;;5.05;99.16;99884.03;5048512;28;20033;-70
2023/12/30 08:06:36;;;;;;;34.28;21.15;;;;;;;5.25;97.83;99893.31;5048759;28;20532;-73
2023/12/30 08:09:01;;;;;;;40.08;22.00;;;;;;;5.15;97.55;99891.44;5040683;28;20040;-72
2023/12/30 08:11:27;;;;;;;36.72;21.85;;;;;;;5.46;97.48;99899.53;5032649;28;20036;-73
2023/12/30 08:13:52;;;;;;;40.28;23.73;;;;;;;5.48;96.04;99896.44;5038626;28;20043;-71
2023/12/30 08:16:18;;;;;;;44.15;24.70;;;;;;;5.46;95.60;99890.38;5047113;28;20402;-72
2023/12/30 08:18:44;;;;;;;52.75;27.42;;;;;;;5.50;97.31;99904.50;5047720;28;20390;-72
2023/12/30 08:21:10;;;;;;;41.95;22.33;;;;;;;5.50;95.43;99901.72;5030671;28;20101;-73
2023/12/30 08:23:35;;;;;;;40.10;22.83;;;;;;;5.70;95.04;99901.53;5027847;28;20094;-73
2023/12/30 08:26:01;;;;;;;55.17;24.50;;;;;;;5.96;93.38;99900.44;5029167;28;20033;-73
2023/12/30 08:28:26;;;;;;;65.78;26.02;;;;;;;6.14;92.22;99899.75;5031309;28;20040;-71
2023/12/30 08:30:53;;;;;;;43.03;23.73;;;;;;;6.35;91.71;99904.22;5039629;28;20056;-71
2023/12/30 08:33:21;;;;;;;46.00;25.45;;;;;;;6.36;91.81;99906.72;5028575;28;20049;-71
2023/12/30 08:35:48;;;;;;;52.63;28.55;;;;;;;6.36;92.84;99903.09;5027501;28;20510;-72
2023/12/30 08:38:16;;;;;;;53.17;30.50;;;;;;;6.55;92.06;99901.22;5028948;28;20033;-72
2023/12/30 08:40:42;;;;;;;37.42;22.65;;;;;;;6.70;89.92;99899.34;5036031;28;20044;-72
2023/12/30 08:43:07;;;;;;;43.53;25.50;;;;;;;6.89;89.24;99899.34;5051244;28;20021;-72
2023/12/30 08:45:33;;;;;;;38.42;22.45;;;;;;;7.07;86.53;99902.47;5047986;28;20025;-71
2023/12/30 08:47:58;;;;;;;35.30;17.52;;;;;;;6.84;82.13;99897.47;5050976;28;20056;-72
2023/12/30 08:50:24;;;;;;;34.20;18.50;;;;;;;6.93;82.55;99886.50;5050925;28;20028;-72
2023/12/30 08:52:49;;;;;;;34.28;20.65;;;;;;;7.15;82.34;99883.13;5049322;28;20036;-72
2023/12/30 08:55:15;;;;;;;33.53;17.92;;;;;;;7.21;83.13;99888.59;5050649;28;20051;-72
2023/12/30 08:57:43;;;;;;;31.98;18.25;;;;;;;7.29;81.02;99877.59;5049216;28;20490;-72
2023/12/30 09:00:08;;;;;;;32.20;19.13;;;;;;;7.43;80.58;99872.09;5036082;28;20410;-72
2023/12/30 09:02:38;;;;;;;31.63;16.80;;;;;;;7.64;80.28;99870.91;5030680;28;20061;-72
2023/12/30 09:05:05;;;;;;;34.22;18.17;;;;;;;7.53;80.31;99870.28;5031037;28;20471;-71
2023/12/30 09:07:31;;;;;;;33.25;17.88;;;;;;;7.52;80.65;99858.31;5029258;28;20022;-72
2023/12/30 09:09:58;;;;;;;28.33;16.63;;;;;;;7.56;80.09;99861.31;5029502;28;20052;-71
2023/12/30 09:12:24;;;;;;;31.77;16.00;;;;;;;7.63;80.30;99855.34;5042506;28;20039;-71
2023/12/30 09:14:49;;;;;;;29.90;17.88;;;;;;;7.59;81.18;99855.97;5029234;28;20070;-72
2023/12/30 09:17:14;;;;;;;31.70;17.17;;;;;;;7.58;82.51;99854.31;5030395;28;20413;-71
2023/12/30 09:19:40;;;;;;;34.00;19.50;;;;;;;7.76;82.45;99850.94;5049123;28;20033;-72
2023/12/30 09:22:07;;;;;;;30.52;17.77;;;;;;;7.98;81.03;99850.25;5050265;28;20033;-71
2023/12/30 09:24:33;;;;;;;30.17;17.52;;;;;;;8.07;80.98;99844.78;5043099;28;20046;-72
2023/12/30 09:26:59;;;;;;;42.50;21.73;;;;;;;8.31;80.42;99839.00;5034302;28;20066;-71
2023/12/30 09:29:24;;;;;;;35.47;17.80;;;;;;;8.68;79.90;99841.88;5037718;28;20067;-72
2023/12/30 09:31:49;;;;;;;26.17;15.85;;;;;;;8.87;77.32;99847.31;5048801;28;20021;-72
2023/12/30 09:34:15;;;;;;;22.63;14.88;;;;;;;8.98;76.63;99843.13;5048838;28;20029;-72
2023/12/30 09:36:40;;;;;;;24.95;12.18;;;;;;;8.90;74.56;99837.47;5050282;28;20029;-72
2023/12/30 09:39:07;;;;;;;29.98;14.50;;;;;;;9.13;74.67;99833.56;5050308;28;20033;-72
2023/12/30 09:41:34;;;;;;;21.88;12.30;;;;;;;9.23;72.96;99831.66;5033843;28;20066;-74
2023/12/30 09:43:59;;;;;;;18.40;11.45;;;;;;;9.12;72.03;99834.72;5030269;28;20410;-74
2023/12/30 09:46:26;;;;;;;23.40;11.82;;;;;;;9.35;71.41;99828.28;5032368;28;20025;-71
2023/12/30 09:48:55;;;;;;;44.13;14.57;;;;;;;9.54;71.70;99822.53;5028883;28;20120;-71
2023/12/30 09:51:21;;;;;;;20.40;10.68;;;;;;;9.56;69.46;99820.22;5028949;28;20017;-71
2023/12/30 09:53:46;;;;;;;19.50;11.02;;;;;;;9.51;68.71;99812.81;5030175;28;20045;-71
2023/12/30 09:56:13;;;;;;;22.30;9.45;;;;;;;9.75;69.06;99816.38;5030240;28;20060;-71
2023/12/30 09:58:40;;;;;;;15.55;9.70;;;;;;;9.89;68.11;99811.50;5044576;28;20079;-71
2023/12/30 10:01:05;;;;;;;21.60;10.05;;;;;;;9.88;67.82;99804.25;5030208;28;20228;-71
2023/12/30 10:03:31;;;;;;;19.42;11.00;;;;;;;9.98;66.91;99806.78;5030111;28;20493;-71
2023/12/30 10:06:03;;;;;;;14.95;10.23;;;;;;;9.94;67.13;99796.56;5030249;28;20022;-71
2023/12/30 10:08:29;;;;;;;25.20;10.55;;;;;;;10.25;66.93;99804.06;5030039;28;20021;-71
2023/12/30 10:10:55;;;;;;;36.05;15.70;;;;;;;10.49;65.78;99795.25;5030152;28;20033;-75
2023/12/30 10:13:26;;;;;;;18.83;10.32;;;;;;;10.66;64.17;99793.66;5028633;28;20026;-74
2023/12/30 10:15:53;;;;;;;124.13;42.42;;;;;;;10.87;62.61;99781.81;5029902;28;20506;-74
2023/12/30 10:18:21;;;;;;;33.08;15.80;;;;;;;10.99;62.39;99781.16;5030488;28;20059;-71
2023/12/30 10:20:47;;;;;;;18.38;9.25;;;;;;;11.00;61.39;99780.00;5029843;28;20049;-72
2023/12/30 10:23:14;;;;;;;20.25;8.38;;;;;;;10.96;62.11;99779.81;5035938;28;20482;-72
2023/12/30 10:25:41;;;;;;;42.22;10.40;;;;;;;11.15;61.48;99776.66;5040033;28;20116;-73
2023/12/30 10:28:06;;;;;;;18.88;9.63;;;;;;;11.32;60.01;99761.81;5041604;28;20041;-73
2023/12/30 10:30:32;;;;;;;16.58;7.47;;;;;;;11.43;59.39;99758.66;5046818;28;20452;-73
2023/12/30 10:33:09;;;;;;;23.17;11.32;;;;;;;11.49;58.50;99758.16;5042933;28;20514;-73
2023/12/30 10:35:35;;;;;;;55.05;24.55;;;;;;;11.60;57.80;99755.00;5043962;28;20035;-71
2023/12/30 10:38:11;;;;;;;30.77;14.80;;;;;;;11.82;57.45;99753.09;5047868;28;20021;-72
2023/12/30 10:40:38;;;;;;;271.33;108.90;;;;;;;11.91;57.37;99743.47;5048091;28;20037;-72
2023/12/30 10:43:04;;;;;;;48.60;20.45;;;;;;;12.03;56.45;99758.78;5051368;28;20032;-72
2023/12/30 10:45:31;;;;;;;49.80;21.98;;;;;;;12.21;56.85;99751.09;5051257;28;20032;-71
2023/12/30 10:47:59;;;;;;;464.00;197.45;;;;;;;12.28;56.16;99745.78;5049857;28;20033;-71
2023/12/30 10:50:26;;;;;;;52.40;22.30;;;;;;;12.32;55.40;99743.13;5049868;28;20028;-71
2023/12/30 10:53:02;;;;;;;80.07;37.42;;;;;;;12.40;56.47;99736.63;5049757;28;20035;-71
2023/12/30 10:55:37;;;;;;;150.82;74.53;;;;;;;12.51;56.58;99737.06;5051072;28;20060;-71
2023/12/30 10:58:09;;;;;;;55.78;28.00;;;;;;;12.59;56.02;99729.72;5049449;28;20054;-71
2023/12/30 11:00:35;;;;;;;470.73;235.60;;;;;;;12.69;56.24;99732.13;5050785;28;20021;-70
2023/12/30 11:03:05;;;;;;;49.00;24.05;;;;;;;12.83;56.47;99726.22;5049459;28;20056;-70
2023/12/30 11:05:43;;;;;;;12.18;8.07;;;;;;;12.86;55.97;99721.91;5049396;28;20035;-71
2023/12/30 11:08:09;;;;;;;21.70;14.52;;;;;;;12.92;57.23;99714.91;5049623;28;20379;-71
2023/12/30 11:10:35;;;;;;;13.65;9.50;;;;;;;12.96;56.69;99726.25;5050918;28;20052;-70
2023/12/30 11:13:00;;;;;;;12.88;8.38;;;;;;;12.97;55.46;99708.25;5049478;28;20536;-70
2023/12/30 11:15:28;;;;;;;15.38;9.88;;;;;;;12.92;56.17;99698.06;5050531;28;20044;-71